首页
METAR-TAF:

METAR-TAF

机场 :

吉达, 沙特阿拉伯

阿卜杜勒-阿齐兹国王国际机场

纬度: 21-42N, 经度: 039-11E, 海拔: 15米

当前天气观测

该预报发布于1小时和4分钟前的21:00 UTC
风速4节,风向
温度 23°C
湿度 69%
气压 1013 hPa
能见度10公里或以上
1500米以下无云,无积雨云

METAR: OEJN 172100Z 36004KT CAVOK 23/17 Q1013 NOSIG

时间: 01:04 (22:04 UTC)

预报

该预报发布于5小时和4分钟前的17:00 UTC
预报有效从17日的 18点(UTC)到 18日的 24点(UTC)
风速8节,风向东北
能見度: 9000
成为
从 17日的 23点(UTC)到 18日的 01点(UTC)
风速3节,风向多变
几率 30% :
短暂存在
从 18日的 00点(UTC)到 18日的 05点(UTC)
能見度: 5000
轻雾
成为
从 18日的 06点(UTC)到 18日的 08点(UTC)
风速6节,风向西转西北,有时为16节阵风

TAF: OEJN 171700Z 1718/1824 05008KT 9000 NSC BECMG 1723/1801 VRB03KT PROB30 TEMPO 1800/1805 5000 BR BECMG 1806/1808 30006G16KT

超过4000个机场的气象观测和天气预报(METAR&TAF报告)。

可查询的气象台以黄色和红色小点在地图上表示。

将鼠标移到小点上方,可查看气象台名称。

然后点击查看天气观测和预报。

如需切换地图:点击带黑十字的绿色按钮放大地图;点击带横线的绿色按钮缩小地图;或者点击绿色箭头查看邻近地区的地图。


METAR-TAF: